Time;durP1;ratioP1;P1;durP2;ratioP2;P2;SDS_P1;SDS_P2;PMS_P1;PMS_P2;Temp;Humidity;BMP_temperature;BMP_pressure;BME280_temperature;BME280_humidity;BME280_pressure;Samples;Min_cycle;Max_cycle;Signal;HPM_P1;HPM_P2
2021/05/08 00:01:08;;;;;;;7.47;4.50;;;;;;;1.58;77.68;96590.97;5048569;28;20099;-79
2021/05/08 00:03:34;;;;;;;8.10;4.60;;;;;;;1.48;77.53;96590.72;5050190;28;20025;-79
2021/05/08 00:06:02;;;;;;;8.43;4.60;;;;;;;1.37;78.24;96593.94;5055804;28;20468;-79
2021/05/08 00:08:28;;;;;;;7.20;4.70;;;;;;;1.35;78.30;96587.22;5059519;28;20509;-79
2021/05/08 00:10:54;;;;;;;7.50;4.57;;;;;;;1.26;78.99;96593.78;5051044;28;20447;-78
2021/05/08 00:13:20;;;;;;;10.50;5.20;;;;;;;1.17;78.63;96600.38;5060217;28;20458;-79
2021/05/08 00:15:46;;;;;;;8.70;5.27;;;;;;;1.10;79.51;96596.44;5058916;28;20051;-79
2021/05/08 00:18:11;;;;;;;8.43;4.83;;;;;;;1.09;79.84;96596.56;5074974;28;20040;-79
2021/05/08 00:20:37;;;;;;;9.43;4.77;;;;;;;1.07;79.76;96593.22;5058393;28;20035;-79
2021/05/08 00:23:04;;;;;;;7.40;4.37;;;;;;;1.05;80.31;96592.50;5057821;28;20115;-79
2021/05/08 00:25:29;;;;;;;7.90;4.37;;;;;;;1.08;79.51;96598.31;5055963;28;20040;-79
2021/05/08 00:27:55;;;;;;;8.37;4.77;;;;;;;1.05;79.58;96595.91;5062101;28;20534;-79
2021/05/08 00:30:21;;;;;;;8.30;5.40;;;;;;;1.07;79.60;96593.22;5087925;28;20081;-79
2021/05/08 00:32:47;;;;;;;7.57;4.57;;;;;;;1.19;78.17;96589.88;5061023;28;20017;-79
2021/05/08 00:35:13;;;;;;;6.87;4.37;;;;;;;1.10;78.96;96586.09;5069597;28;20463;-78
2021/05/08 00:37:38;;;;;;;7.00;4.60;;;;;;;1.07;78.50;96585.44;5066163;28;20608;-79
2021/05/08 00:40:05;;;;;;;8.63;4.77;;;;;;;1.13;78.17;96583.31;5057707;28;20033;-79
2021/05/08 00:42:32;;;;;;;11.00;4.60;;;;;;;1.06;78.28;96576.84;5053102;28;20497;-79
2021/05/08 00:44:58;;;;;;;7.13;4.30;;;;;;;1.13;77.94;96587.66;5062324;28;20559;-79
2021/05/08 00:47:24;;;;;;;8.30;4.37;;;;;;;1.16;77.99;96582.31;5081412;28;20431;-79
2021/05/08 00:49:50;;;;;;;8.23;4.40;;;;;;;1.14;77.87;96587.59;5079217;28;20290;-80
2021/05/08 00:52:16;;;;;;;11.97;4.80;;;;;;;1.19;77.28;96584.72;5092169;28;20759;-79
2021/05/08 00:54:43;;;;;;;7.13;3.87;;;;;;;1.18;77.27;96583.88;5071603;28;20877;-79
2021/05/08 00:57:10;;;;;;;11.53;4.43;;;;;;;1.15;77.17;96589.25;5067757;28;20554;-79
2021/05/08 00:59:36;;;;;;;8.77;4.37;;;;;;;1.01;77.66;96576.31;5060836;28;20868;-79
2021/05/08 01:02:03;;;;;;;7.60;4.60;;;;;;;0.91;78.83;96588.97;5058214;28;20459;-79
2021/05/08 01:04:30;;;;;;;7.17;4.17;;;;;;;0.87;78.63;96584.91;5059063;28;20054;-79
2021/05/08 01:06:56;;;;;;;6.90;4.67;;;;;;;0.87;78.34;96582.31;5078668;28;20470;-79
2021/05/08 01:09:23;;;;;;;9.23;4.97;;;;;;;0.78;80.04;96594.97;5065887;28;20486;-78
2021/05/08 01:11:50;;;;;;;9.13;4.70;;;;;;;0.59;80.46;96598.63;5058229;28;20456;-79
2021/05/08 01:14:17;;;;;;;11.03;5.97;;;;;;;0.54;80.68;96594.63;5063028;28;20471;-79
2021/05/08 01:16:43;;;;;;;7.83;4.63;;;;;;;0.62;80.24;96593.25;5051469;28;20466;-79
2021/05/08 01:19:12;;;;;;;6.50;4.13;;;;;;;0.73;79.19;96597.81;5069087;28;20470;-79
2021/05/08 01:21:37;;;;;;;6.70;4.47;;;;;;;0.82;78.12;96589.50;5055602;28;20056;-78
2021/05/08 01:24:04;;;;;;;6.87;4.00;;;;;;;0.86;77.88;96596.16;5057909;28;21016;-79
2021/05/08 01:26:31;;;;;;;7.83;4.57;;;;;;;0.90;78.02;96600.22;5046049;28;20025;-80
2021/05/08 01:28:57;;;;;;;7.87;4.30;;;;;;;1.02;77.30;96597.84;5061672;28;20500;-79
2021/05/08 01:31:23;;;;;;;7.27;4.30;;;;;;;1.09;76.26;96597.38;5065566;28;20479;-79
2021/05/08 01:33:49;;;;;;;5.90;3.77;;;;;;;1.17;75.74;96602.94;5060165;28;20456;-79
2021/05/08 01:36:15;;;;;;;5.50;3.70;;;;;;;1.17;76.41;96599.50;5062856;28;20907;-79
2021/05/08 01:38:42;;;;;;;6.50;3.67;;;;;;;1.18;75.45;96596.84;5063425;28;20506;-79
2021/05/08 01:41:09;;;;;;;10.00;4.67;;;;;;;1.22;75.89;96599.25;5067512;28;20471;-79
2021/05/08 01:43:35;;;;;;;6.83;3.87;;;;;;;1.17;76.28;96591.72;5054334;28;20460;-78
2021/05/08 01:46:02;;;;;;;6.47;3.70;;;;;;;1.11;76.57;96592.13;5054076;28;20512;-79
2021/05/08 01:48:29;;;;;;;6.73;3.93;;;;;;;1.12;76.56;96594.59;5041425;28;20025;-79
2021/05/08 01:50:57;;;;;;;7.40;3.73;;;;;;;1.11;76.43;96589.53;5055839;28;20459;-78
2021/05/08 01:53:23;;;;;;;6.37;3.70;;;;;;;1.08;77.17;96590.53;5051223;28;21069;-78
2021/05/08 01:55:50;;;;;;;7.03;3.90;;;;;;;1.07;76.57;96583.69;5059360;28;20444;-79
2021/05/08 01:58:22;;;;;;;5.93;4.00;;;;;;;1.13;76.55;96580.72;5049455;28;20502;-80
2021/05/08 02:00:53;;;;;;;6.00;3.60;;;;;;;1.13;77.00;96585.91;5070343;28;20510;-78
2021/05/08 02:03:20;;;;;;;6.20;4.00;;;;;;;1.10;76.67;96586.09;5052972;28;20479;-79
2021/05/08 02:05:48;;;;;;;7.47;4.20;;;;;;;1.15;76.18;96584.06;5058617;28;20455;-80
2021/05/08 02:08:32;;;;;;;6.90;3.87;;;;;;;1.20;75.69;96585.53;5056600;28;20931;-78
2021/05/08 02:11:00;;;;;;;7.63;4.20;;;;;;;1.16;76.56;96575.38;5067279;28;20458;-79
2021/05/08 02:13:26;;;;;;;7.80;4.03;;;;;;;1.26;76.52;96582.59;5054099;28;20482;-79
2021/05/08 02:15:51;;;;;;;7.53;4.03;;;;;;;1.25;76.19;96584.34;5050206;28;20033;-78
2021/05/08 02:18:17;;;;;;;9.47;4.17;;;;;;;1.25;76.57;96573.16;5062273;28;20028;-79
2021/05/08 02:20:46;;;;;;;7.33;3.97;;;;;;;1.25;76.36;96567.97;5046054;28;20487;-78
2021/05/08 02:23:16;;;;;;;6.80;4.03;;;;;;;1.31;76.50;96567.59;5048524;28;20442;-78
2021/05/08 02:25:46;;;;;;;6.55;3.72;;;;;;;1.34;76.64;96557.88;5045530;28;20475;-78
2021/05/08 02:28:12;;;;;;;8.60;4.03;;;;;;;1.46;76.43;96556.28;5066339;28;20033;-80
2021/05/08 02:30:41;;;;;;;7.03;4.10;;;;;;;1.44;76.21;96550.34;5065392;28;20025;-78
2021/05/08 02:33:08;;;;;;;10.27;4.37;;;;;;;1.48;76.36;96559.63;5034920;28;20024;-78
2021/05/08 02:35:34;;;;;;;11.43;4.27;;;;;;;1.57;76.22;96555.59;5051837;28;20444;-79
2021/05/08 02:38:02;;;;;;;8.63;5.23;;;;;;;1.52;76.16;96550.72;5068472;28;20462;-79
2021/05/08 02:40:31;;;;;;;8.10;5.13;;;;;;;1.56;76.95;96546.16;5053720;28;20550;-81
2021/05/08 02:43:00;;;;;;;8.97;4.97;;;;;;;1.62;76.23;96543.19;5054440;28;20887;-78
2021/05/08 02:45:27;;;;;;;8.47;4.83;;;;;;;1.75;75.94;96536.31;5071502;28;20462;-78
2021/05/08 02:47:53;;;;;;;8.37;5.13;;;;;;;1.75;75.94;96535.47;5060607;28;20501;-79
2021/05/08 02:50:21;;;;;;;8.13;5.20;;;;;;;1.80;76.12;96536.81;5074273;28;20502;-78
2021/05/08 02:52:46;;;;;;;9.57;5.77;;;;;;;1.85;76.50;96532.19;5054440;28;20467;-78
2021/05/08 02:55:15;;;;;;;9.47;6.37;;;;;;;1.95;76.33;96535.03;5051733;28;20447;-78
2021/05/08 02:57:43;;;;;;;10.87;7.00;;;;;;;1.99;76.48;96538.25;5058838;28;20457;-79
2021/05/08 03:00:15;;;;;;;9.53;6.70;;;;;;;2.01;76.21;96528.59;5089154;28;20454;-79
2021/05/08 03:02:42;;;;;;;13.47;7.33;;;;;;;2.05;76.58;96527.50;5046530;28;20490;-79
2021/05/08 03:05:09;;;;;;;12.37;7.20;;;;;;;2.06;76.24;96529.16;5063705;28;20463;-79
2021/05/08 03:07:36;;;;;;;10.50;6.57;;;;;;;2.07;76.46;96525.59;5063182;28;20459;-79
2021/05/08 03:10:05;;;;;;;11.57;7.07;;;;;;;2.02;76.51;96522.50;5062285;28;20444;-79
2021/05/08 03:12:31;;;;;;;11.60;7.60;;;;;;;2.08;76.31;96520.34;5047743;28;20472;-80
2021/05/08 03:14:57;;;;;;;14.23;9.43;;;;;;;2.10;76.38;96521.03;5079634;28;20428;-79
2021/05/08 03:17:23;;;;;;;17.63;12.07;;;;;;;2.07;76.22;96521.25;5063304;28;21096;-79
2021/05/08 03:19:52;;;;;;;12.43;7.77;;;;;;;2.18;76.59;96530.09;5055719;28;20543;-79
2021/05/08 03:22:18;;;;;;;15.77;10.30;;;;;;;2.16;76.67;96525.00;5062980;28;20511;-79
2021/05/08 03:24:44;;;;;;;14.23;9.97;;;;;;;2.18;76.79;96517.13;5061648;28;20024;-79
2021/05/08 03:27:11;;;;;;;26.73;13.90;;;;;;;2.22;76.47;96518.59;5059208;28;21019;-78
2021/05/08 03:29:38;;;;;;;35.77;18.13;;;;;;;2.19;76.64;96516.22;5070902;28;20451;-79
2021/05/08 03:32:04;;;;;;;16.50;10.33;;;;;;;2.34;76.00;96518.59;5051571;28;20467;-79
2021/05/08 03:34:30;;;;;;;17.07;10.50;;;;;;;2.32;76.83;96530.03;5063883;28;20055;-79
2021/05/08 03:36:57;;;;;;;15.57;10.10;;;;;;;2.42;76.89;96525.06;5061622;28;20471;-79
2021/05/08 03:39:25;;;;;;;12.87;9.77;;;;;;;2.47;76.74;96523.81;5066282;28;20450;-78
2021/05/08 03:41:51;;;;;;;14.80;8.53;;;;;;;2.49;76.44;96528.91;5062168;28;20459;-79
2021/05/08 03:44:17;;;;;;;12.87;8.57;;;;;;;2.44;77.04;96524.00;5064356;28;20024;-79
2021/05/08 03:46:43;;;;;;;12.60;8.83;;;;;;;2.50;77.19;96523.63;5056150;28;20828;-78
2021/05/08 03:49:08;;;;;;;15.10;8.50;;;;;;;2.55;76.62;96518.97;5083782;28;20029;-78
2021/05/08 03:51:34;;;;;;;14.80;8.77;;;;;;;2.57;76.73;96526.63;5061106;28;20043;-79
2021/05/08 03:54:00;;;;;;;13.57;8.37;;;;;;;2.58;76.86;96521.34;5062078;28;20024;-78
2021/05/08 03:56:26;;;;;;;12.93;8.57;;;;;;;2.57;76.89;96521.44;5059707;28;20505;-78
2021/05/08 03:58:52;;;;;;;13.33;8.47;;;;;;;2.59;77.15;96515.22;5051728;28;20139;-80
2021/05/08 04:01:18;;;;;;;15.70;9.20;;;;;;;2.66;76.77;96517.41;5060440;28;20582;-79
2021/05/08 04:03:44;;;;;;;13.77;8.80;;;;;;;2.73;76.36;96516.03;5063975;28;20021;-78
2021/05/08 04:06:09;;;;;;;16.23;8.77;;;;;;;2.67;76.88;96516.47;5062639;28;20471;-80
2021/05/08 04:08:35;;;;;;;15.33;8.67;;;;;;;2.64;76.82;96509.69;5062148;28;20036;-78
2021/05/08 04:11:01;;;;;;;11.87;8.00;;;;;;;2.66;76.97;96507.84;5060660;28;20036;-79
2021/05/08 04:13:26;;;;;;;11.63;8.17;;;;;;;2.75;76.35;96514.16;5054545;28;20548;-81
2021/05/08 04:15:52;;;;;;;12.70;8.60;;;;;;;2.79;76.19;96502.66;5047960;28;20033;-80
2021/05/08 04:18:18;;;;;;;13.53;8.83;;;;;;;2.81;76.61;96505.97;5065192;28;20101;-79
2021/05/08 04:20:47;;;;;;;12.37;8.40;;;;;;;2.87;76.49;96505.53;5059862;28;20051;-79
2021/05/08 04:23:13;;;;;;;12.63;7.63;;;;;;;2.86;76.19;96509.09;5059319;28;20025;-78
2021/05/08 04:25:38;;;;;;;14.23;8.67;;;;;;;2.95;76.10;96503.28;5055028;28;20567;-78
2021/05/08 04:28:07;;;;;;;12.67;8.17;;;;;;;2.96;75.89;96510.13;5048919;28;20028;-78
2021/05/08 04:30:33;;;;;;;13.37;8.10;;;;;;;3.08;75.91;96503.22;5060516;28;20123;-79
2021/05/08 04:33:01;;;;;;;13.20;7.80;;;;;;;3.11;76.03;96509.97;5062187;28;21052;-79
2021/05/08 04:35:27;;;;;;;12.73;7.37;;;;;;;3.15;75.61;96508.81;5062246;28;20049;-79
2021/05/08 04:37:52;;;;;;;13.90;8.97;;;;;;;3.22;75.75;96512.66;5065614;28;20455;-78
2021/05/08 04:40:18;;;;;;;13.50;8.27;;;;;;;3.29;75.33;96519.94;5056408;28;20032;-78
2021/05/08 04:42:44;;;;;;;14.87;7.63;;;;;;;3.40;75.00;96519.19;5058262;28;20033;-78
2021/05/08 04:45:09;;;;;;;11.73;7.97;;;;;;;3.49;74.49;96515.94;5061811;28;20051;-78
2021/05/08 04:47:35;;;;;;;11.20;7.33;;;;;;;3.63;74.43;96517.56;5062322;28;20055;-78
2021/05/08 04:50:03;;;;;;;13.00;8.63;;;;;;;3.67;73.97;96521.59;5064801;28;20110;-78
2021/05/08 04:52:29;;;;;;;16.03;8.20;;;;;;;3.72;74.05;96516.91;5064665;28;20032;-79
2021/05/08 04:54:54;;;;;;;11.60;7.37;;;;;;;3.80;73.49;96511.13;5072605;28;20451;-79
2021/05/08 04:57:20;;;;;;;11.73;7.27;;;;;;;3.94;72.53;96517.94;5055927;28;20670;-79
2021/05/08 04:59:46;;;;;;;11.10;7.03;;;;;;;4.03;72.63;96517.28;5059101;28;20182;-79
2021/05/08 05:02:12;;;;;;;12.87;7.40;;;;;;;4.06;72.33;96511.00;5053693;28;20036;-80
2021/05/08 05:04:37;;;;;;;13.00;7.70;;;;;;;4.00;72.76;96518.31;5064121;28;20033;-79
2021/05/08 05:07:03;;;;;;;12.50;6.90;;;;;;;4.03;73.04;96509.47;5060131;28;20090;-79
2021/05/08 05:09:32;;;;;;;11.00;7.43;;;;;;;4.11;72.69;96514.94;5048879;28;20040;-78
2021/05/08 05:11:58;;;;;;;10.63;6.87;;;;;;;4.29;71.64;96504.09;5061466;28;20458;-78
2021/05/08 05:14:23;;;;;;;11.53;7.53;;;;;;;4.46;71.24;96504.53;5065760;28;20493;-80
2021/05/08 05:16:49;;;;;;;11.60;7.60;;;;;;;4.61;70.72;96504.31;5073060;28;20029;-81
2021/05/08 05:19:15;;;;;;;11.70;7.40;;;;;;;4.57;70.37;96515.91;5062808;28;20041;-79
2021/05/08 05:21:40;;;;;;;11.07;7.27;;;;;;;4.66;70.74;96510.00;5062916;28;20025;-80
2021/05/08 05:24:08;;;;;;;12.93;7.87;;;;;;;4.80;70.34;96509.78;5063244;28;20028;-80
2021/05/08 05:26:34;;;;;;;15.00;8.47;;;;;;;5.01;69.64;96509.09;5058545;28;20027;-79
2021/05/08 05:29:00;;;;;;;13.27;6.93;;;;;;;5.02;69.35;96505.53;5054476;28;20037;-78
2021/05/08 05:31:26;;;;;;;13.50;7.07;;;;;;;5.27;68.83;96507.09;5067866;28;20518;-79
2021/05/08 05:33:51;;;;;;;10.93;7.13;;;;;;;5.64;67.63;96492.78;5053640;28;20082;-79
2021/05/08 05:36:17;;;;;;;12.00;6.83;;;;;;;5.63;66.95;96485.06;5059505;28;20005;-79
2021/05/08 05:38:43;;;;;;;10.00;6.27;;;;;;;5.91;66.38;96484.53;5059347;28;20029;-79
2021/05/08 05:41:10;;;;;;;10.43;6.13;;;;;;;5.98;65.96;96489.28;5056390;28;20533;-79
2021/05/08 05:43:35;;;;;;;8.43;6.20;;;;;;;6.29;65.02;96493.63;5055726;28;20039;-79
2021/05/08 05:46:01;;;;;;;9.30;6.37;;;;;;;6.34;64.85;96486.28;5054747;28;20037;-79
2021/05/08 05:48:27;;;;;;;11.17;6.33;;;;;;;6.59;63.38;96492.88;5061486;28;20040;-81
2021/05/08 05:50:52;;;;;;;9.67;5.70;;;;;;;6.87;62.64;96487.94;5069489;28;20032;-79
2021/05/08 05:53:18;;;;;;;8.50;5.27;;;;;;;7.02;62.41;96493.66;5065836;28;20440;-79
2021/05/08 05:55:44;;;;;;;8.87;5.23;;;;;;;7.27;60.90;96495.81;5059059;28;20068;-78
2021/05/08 05:58:10;;;;;;;13.17;5.47;;;;;;;7.42;60.82;96492.84;5055870;28;20029;-79
2021/05/08 06:00:36;;;;;;;9.20;6.00;;;;;;;7.18;61.00;96491.41;5064326;28;20033;-80
2021/05/08 06:03:02;;;;;;;8.63;5.87;;;;;;;7.55;60.42;96506.53;5066431;28;20044;-79
2021/05/08 06:05:27;;;;;;;9.83;6.20;;;;;;;7.91;59.96;96501.63;5061228;28;21097;-79
2021/05/08 06:07:53;;;;;;;13.07;6.03;;;;;;;7.62;59.41;96499.78;5072136;28;20081;-79
2021/05/08 06:10:19;;;;;;;8.93;5.03;;;;;;;8.32;57.35;96491.88;5060828;28;20024;-79
2021/05/08 06:12:44;;;;;;;8.43;4.47;;;;;;;8.29;55.88;96484.28;5068558;28;20123;-80
2021/05/08 06:15:12;;;;;;;8.37;4.30;;;;;;;8.71;54.94;96485.63;5074588;28;20024;-79
2021/05/08 06:17:39;;;;;;;10.07;4.73;;;;;;;8.80;53.93;96483.13;5067653;28;20055;-80
2021/05/08 06:20:05;;;;;;;9.57;4.73;;;;;;;8.67;54.32;96486.88;5062731;28;20035;-79
2021/05/08 06:22:32;;;;;;;6.97;4.70;;;;;;;9.03;53.83;96479.19;5056297;28;20040;-79
2021/05/08 06:24:58;;;;;;;8.90;4.30;;;;;;;9.26;52.45;96487.53;5064505;28;20055;-79
2021/05/08 06:27:24;;;;;;;8.53;4.60;;;;;;;9.58;52.22;96487.09;5068400;28;20475;-79
2021/05/08 06:29:50;;;;;;;8.03;5.23;;;;;;;9.80;52.51;96479.78;5061339;28;20036;-79
2021/05/08 06:32:16;;;;;;;9.83;5.03;;;;;;;9.80;52.47;96474.53;5056739;28;20025;-77
2021/05/08 06:34:42;;;;;;;9.17;5.07;;;;;;;9.66;52.21;96473.25;5042146;28;20032;-78
2021/05/08 06:37:07;;;;;;;12.30;4.97;;;;;;;9.89;51.81;96468.38;5065301;28;20025;-78
2021/05/08 06:39:34;;;;;;;9.23;4.50;;;;;;;9.84;52.36;96475.88;5062631;28;20028;-77
2021/05/08 06:42:00;;;;;;;8.63;3.90;;;;;;;10.02;50.59;96479.34;5068301;28;20143;-78
2021/05/08 06:44:26;;;;;;;6.10;3.80;;;;;;;10.31;50.45;96473.06;5055294;28;20603;-78
2021/05/08 06:46:55;;;;;;;7.07;3.40;;;;;;;10.89;47.68;96469.84;5064326;28;20029;-78
2021/05/08 06:49:21;;;;;;;6.37;3.07;;;;;;;10.77;46.74;96471.94;5080521;28;20473;-78
2021/05/08 06:51:47;;;;;;;6.47;3.20;;;;;;;11.22;46.37;96472.66;5045153;28;20036;-78
2021/05/08 06:54:14;;;;;;;7.37;3.53;;;;;;;11.60;45.72;96478.41;5064673;28;20032;-78
2021/05/08 06:56:40;;;;;;;6.10;3.20;;;;;;;11.50;44.59;96481.19;5072141;28;20085;-77
2021/05/08 06:59:06;;;;;;;6.77;3.53;;;;;;;12.09;42.83;96481.22;5055981;28;20026;-78
2021/05/08 07:01:33;;;;;;;6.57;3.00;;;;;;;12.19;42.90;96473.97;5060144;28;20040;-77
2021/05/08 07:03:59;;;;;;;8.13;3.03;;;;;;;12.60;42.54;96461.63;5066487;28;20025;-78
2021/05/08 07:06:25;;;;;;;6.20;3.10;;;;;;;11.56;43.90;96473.47;5071330;28;20046;-78
2021/05/08 07:08:51;;;;;;;5.90;2.83;;;;;;;12.04;42.73;96471.16;5048911;28;20037;-77
2021/05/08 07:11:17;;;;;;;7.57;3.13;;;;;;;11.89;43.57;96470.13;5055604;28;20047;-79
2021/05/08 07:13:43;;;;;;;6.33;3.07;;;;;;;11.31;44.04;96467.28;5069689;28;20029;-78
2021/05/08 07:16:09;;;;;;;6.80;2.97;;;;;;;12.69;41.45;96452.72;5081843;28;20025;-78
2021/05/08 07:18:35;;;;;;;8.67;3.30;;;;;;;12.27;43.06;96451.09;5062611;28;20029;-78
2021/05/08 07:21:00;;;;;;;6.93;3.10;;;;;;;12.28;43.52;96449.28;5066659;28;20017;-78
2021/05/08 07:23:26;;;;;;;5.70;2.63;;;;;;;12.41;42.65;96454.06;5063877;28;20028;-78
2021/05/08 07:25:52;;;;;;;5.87;2.77;;;;;;;13.60;40.93;96451.47;5066517;28;20513;-80
2021/05/08 07:28:23;;;;;;;6.00;3.00;;;;;;;13.68;39.95;96456.72;5058903;28;20036;-78
2021/05/08 07:30:52;;;;;;;5.27;2.40;;;;;;;13.77;38.89;96443.47;5070327;28;20732;-78
2021/05/08 07:33:18;;;;;;;5.17;2.57;;;;;;;14.35;38.57;96442.91;5067578;28;20117;-79
2021/05/08 07:35:45;;;;;;;3.97;2.27;;;;;;;13.86;38.34;96445.88;5056000;28;20028;-79
2021/05/08 07:38:12;;;;;;;3.53;1.63;;;;;;;13.35;38.97;96442.84;5049902;28;20398;-78
2021/05/08 07:40:39;;;;;;;3.70;1.87;;;;;;;14.71;36.66;96434.34;5059537;28;20056;-80
2021/05/08 07:43:05;;;;;;;4.70;1.83;;;;;;;13.54;37.14;96440.75;5060038;28;20029;-79
2021/05/08 07:45:32;;;;;;;5.07;2.03;;;;;;;13.62;37.07;96427.53;5065885;28;20033;-79
2021/05/08 07:47:58;;;;;;;4.97;2.07;;;;;;;13.16;38.63;96445.84;5075783;28;20088;-78
2021/05/08 07:50:28;;;;;;;4.27;1.70;;;;;;;13.52;36.61;96440.94;5065361;28;20040;-80
2021/05/08 07:52:55;;;;;;;4.57;1.70;;;;;;;13.52;36.29;96434.84;5077018;28;20028;-78
2021/05/08 07:55:21;;;;;;;6.43;1.47;;;;;;;13.37;37.10;96434.72;5063027;28;20099;-79
2021/05/08 07:57:46;;;;;;;4.63;1.70;;;;;;;13.28;36.56;96430.47;5056852;28;20051;-78
2021/05/08 08:00:15;;;;;;;5.03;1.60;;;;;;;13.84;35.32;96432.00;5043916;28;20028;-79
2021/05/08 08:02:41;;;;;;;2.97;1.40;;;;;;;14.87;34.60;96427.25;5049518;28;20037;-79
2021/05/08 08:05:07;;;;;;;3.23;1.57;;;;;;;14.60;33.92;96426.84;5069974;28;20417;-78
2021/05/08 08:07:33;;;;;;;3.03;1.57;;;;;;;14.99;34.44;96428.44;5066313;28;20039;-79
2021/05/08 08:09:59;;;;;;;4.47;1.73;;;;;;;14.19;34.19;96434.28;5063087;28;20060;-78
2021/05/08 08:12:25;;;;;;;5.10;1.70;;;;;;;15.70;32.43;96426.97;5048494;28;20033;-78
2021/05/08 08:14:51;;;;;;;3.07;1.53;;;;;;;16.17;32.02;96433.56;5059075;28;20407;-77
2021/05/08 08:17:18;;;;;;;3.87;1.77;;;;;;;16.26;30.25;96423.63;5057762;28;20040;-78
2021/05/08 08:19:47;;;;;;;4.18;1.70;;;;;;;16.36;31.83;96428.63;5047842;28;20029;-78
2021/05/08 08:22:13;;;;;;;4.72;1.90;;;;;;;15.84;31.96;96435.06;5050003;28;20064;-78
2021/05/08 08:24:39;;;;;;;2.35;1.40;;;;;;;16.11;30.94;96442.28;5068519;28;20041;-79
2021/05/08 08:27:05;;;;;;;5.70;2.03;;;;;;;15.61;33.07;96430.69;5056158;28;20085;-80
2021/05/08 08:29:31;;;;;;;3.80;1.70;;;;;;;16.13;31.87;96434.13;5058032;28;20036;-80
2021/05/08 08:31:59;;;;;;;3.83;1.63;;;;;;;15.76;31.98;96439.47;5053075;28;20032;-81
2021/05/08 08:34:24;;;;;;;7.75;1.95;;;;;;;16.78;31.21;96429.63;5062411;28;20688;-80
2021/05/08 08:36:50;;;;;;;10.68;2.22;;;;;;;16.11;32.03;96431.69;5072251;28;20025;-80
2021/05/08 08:39:16;;;;;;;3.75;1.90;;;;;;;16.77;32.13;96427.97;5067170;28;20024;-81
2021/05/08 08:41:41;;;;;;;3.47;1.58;;;;;;;15.94;30.74;96428.44;5068331;28;20048;-81
2021/05/08 08:44:10;;;;;;;7.47;3.20;;;;;;;16.42;32.91;96435.84;5068961;28;20393;-81
2021/05/08 08:46:41;;;;;;;3.38;1.50;;;;;;;16.95;29.40;96429.13;5064868;28;20040;-80
2021/05/08 08:49:08;;;;;;;5.90;1.70;;;;;;;17.70;28.46;96423.97;5057873;28;20116;-79
2021/05/08 08:51:34;;;;;;;4.18;1.95;;;;;;;18.63;29.42;96421.53;5058809;28;20024;-79
2021/05/08 08:54:00;;;;;;;5.85;3.42;;;;;;;18.41;29.73;96423.59;5059654;28;20065;-79
2021/05/08 08:56:33;;;;;;;3.03;1.50;;;;;;;17.47;29.29;96434.97;5069324;28;20441;-80
2021/05/08 08:59:03;;;;;;;5.47;1.80;;;;;;;18.35;28.88;96432.38;5067463;28;20032;-80
2021/05/08 09:01:29;;;;;;;2.42;1.35;;;;;;;18.03;27.81;96433.94;5061032;28;20541;-79
2021/05/08 09:03:55;;;;;;;2.13;1.23;;;;;;;18.59;28.33;96422.97;5070052;28;20535;-80
2021/05/08 09:06:21;;;;;;;3.38;1.75;;;;;;;18.08;28.98;96429.66;5069122;28;20033;-79
2021/05/08 09:08:51;;;;;;;2.92;1.63;;;;;;;16.91;29.51;96427.06;5068965;28;20028;-80
2021/05/08 09:11:18;;;;;;;3.33;1.50;;;;;;;17.22;28.87;96413.34;5064854;28;20470;-80
2021/05/08 09:13:43;;;;;;;3.30;1.45;;;;;;;17.00;30.20;96415.28;5070682;28;20028;-79
2021/05/08 09:16:09;;;;;;;3.50;1.90;;;;;;;16.26;31.82;96413.03;5070502;28;20033;-79
2021/05/08 09:18:39;;;;;;;3.90;1.85;;;;;;;15.94;32.88;96424.97;5064536;28;20093;-79
2021/05/08 09:21:08;;;;;;;6.05;1.60;;;;;;;17.55;30.70;96413.50;5066217;28;20032;-79
2021/05/08 09:23:39;;;;;;;4.63;1.70;;;;;;;17.84;29.46;96408.91;5053217;28;20107;-79
2021/05/08 09:26:05;;;;;;;9.57;5.93;;;;;;;18.23;29.87;96394.06;5058026;28;20028;-81
2021/05/08 09:28:33;;;;;;;4.88;1.67;;;;;;;16.96;31.09;96401.53;5065363;28;20552;-80
2021/05/08 09:31:03;;;;;;;4.70;1.40;;;;;;;16.19;31.86;96401.53;5059295;28;20391;-80
2021/05/08 09:33:29;;;;;;;4.18;1.67;;;;;;;16.26;32.84;96395.28;5060111;28;20044;-79
2021/05/08 09:36:02;;;;;;;4.57;1.80;;;;;;;15.69;33.07;96405.91;5066318;28;20024;-81
2021/05/08 09:38:33;;;;;;;6.30;2.03;;;;;;;15.28;34.65;96412.53;5056348;28;20029;-80
2021/05/08 09:40:59;;;;;;;4.32;2.05;;;;;;;15.89;32.98;96401.66;5040100;28;20398;-79
2021/05/08 09:43:25;;;;;;;5.05;1.50;;;;;;;15.54;33.19;96409.41;5062858;28;20029;-80
2021/05/08 09:45:54;;;;;;;4.07;1.45;;;;;;;16.42;35.02;96390.72;5074686;28;20122;-80
2021/05/08 09:48:32;;;;;;;3.40;2.20;;;;;;;16.81;34.18;96395.53;5071254;28;20455;-79
2021/05/08 09:51:22;;;;;;;5.10;1.55;;;;;;;17.57;31.12;96378.72;5066250;28;20398;-81
2021/05/08 09:53:52;;;;;;;5.53;1.52;;;;;;;17.60;30.39;96384.47;5067583;28;20039;-80
2021/05/08 09:56:46;;;;;;;4.85;1.20;;;;;;;18.21;31.33;96380.97;5055641;28;20098;-81
2021/05/08 09:59:36;;;;;;;3.38;1.25;;;;;;;18.46;30.35;96375.84;5066448;28;20040;-81
2021/05/08 10:02:02;;;;;;;4.93;1.38;;;;;;;18.17;29.56;96373.56;5071776;28;20397;-80
2021/05/08 10:04:46;;;;;;;3.35;1.80;;;;;;;17.78;30.97;96370.66;5068783;28;20025;-80
2021/05/08 10:07:32;;;;;;;6.95;3.00;;;;;;;17.75;30.15;96372.88;5083585;28;20036;-81
2021/05/08 10:10:00;;;;;;;3.60;1.60;;;;;;;18.01;30.08;96374.81;5068545;28;20037;-81
2021/05/08 10:12:28;;;;;;;3.10;1.60;;;;;;;17.66;29.79;96370.38;5068033;28;20032;-80
2021/05/08 10:14:58;;;;;;;3.53;1.50;;;;;;;17.05;30.10;96370.34;5060472;28;20044;-81
2021/05/08 10:17:29;;;;;;;3.30;1.63;;;;;;;17.85;29.12;96362.69;5066674;28;20040;-82
2021/05/08 10:20:09;;;;;;;2.25;1.30;;;;;;;18.64;29.10;96353.09;5072332;28;20683;-82
2021/05/08 10:22:42;;;;;;;5.72;1.90;;;;;;;18.99;30.36;96357.16;5054926;28;20039;-82
2021/05/08 10:25:08;;;;;;;;;;;;;;;18.82;28.78;96356.78;5077032;28;20044;-82
2021/05/08 10:27:34;;;;;;;4.18;1.40;;;;;;;18.64;29.11;96353.09;5065409;28;20354;-80
2021/05/08 10:30:05;;;;;;;3.22;1.40;;;;;;;18.18;29.05;96349.44;5070165;28;20033;-82
2021/05/08 10:32:31;;;;;;;4.22;1.50;;;;;;;17.61;31.52;96343.56;5049623;28;20040;-82
2021/05/08 10:35:05;;;;;;;3.25;1.48;;;;;;;17.42;29.95;96345.16;5062115;28;20159;-83
2021/05/08 10:37:34;;;;;;;4.13;1.85;;;;;;;17.34;29.98;96350.66;5067345;28;20109;-82
2021/05/08 10:40:14;;;;;;;4.70;1.40;;;;;;;18.27;29.61;96337.53;5072247;28;20028;-82
2021/05/08 10:42:42;;;;;;;3.88;1.88;;;;;;;19.55;28.58;96329.88;5063512;28;20039;-80
2021/05/08 10:45:16;;;;;;;3.25;1.50;;;;;;;19.51;27.64;96328.66;5053561;28;20041;-81
2021/05/08 10:48:03;;;;;;;5.38;2.10;;;;;;;18.99;29.01;96330.50;5065909;28;20064;-82
2021/05/08 10:50:38;;;;;;;4.20;1.73;;;;;;;18.79;28.81;96321.75;5070498;28;20056;-82
2021/05/08 10:53:19;;;;;;;3.55;1.60;;;;;;;18.98;28.77;96328.88;5053074;28;20119;-82
2021/05/08 10:55:51;;;;;;;3.67;1.92;;;;;;;18.77;29.09;96321.94;5070007;28;20285;-81
2021/05/08 10:58:22;;;;;;;3.30;1.73;;;;;;;19.68;28.46;96306.84;5088921;28;20075;-81
2021/05/08 11:00:49;;;;;;;4.05;1.90;;;;;;;20.00;29.01;96305.00;5069339;28;20028;-82
2021/05/08 11:03:16;;;;;;;4.75;1.92;;;;;;;20.30;28.39;96304.34;5063271;28;20098;-82
2021/05/08 11:06:13;;;;;;;5.32;1.67;;;;;;;19.24;27.48;96308.47;5072915;28;20024;-82
2021/05/08 11:08:44;;;;;;;3.20;1.52;;;;;;;19.41;28.26;96301.63;5066812;28;20078;-82
2021/05/08 11:11:16;;;;;;;5.03;2.13;;;;;;;20.41;26.43;96291.09;5071801;28;20043;-84
2021/05/08 11:13:48;;;;;;;3.38;1.60;;;;;;;20.14;27.04;96293.16;5071813;28;20033;-82
2021/05/08 11:16:18;;;;;;;3.80;1.83;;;;;;;20.02;28.22;96293.06;5070516;28;20036;-82
2021/05/08 11:18:49;;;;;;;3.60;1.77;;;;;;;19.94;26.86;96292.50;5070932;28;20029;-80
2021/05/08 11:21:14;;;;;;;2.38;1.30;;;;;;;20.17;26.11;96284.72;5074864;28;20043;-82
2021/05/08 11:23:51;;;;;;;4.05;1.80;;;;;;;19.61;27.16;96284.69;5077368;28;20020;-82
2021/05/08 11:28:56;;;;;;;3.53;1.55;;;;;;;19.29;28.92;96282.00;5083794;28;20131;-83
2021/05/08 11:31:45;;;;;;;5.70;2.35;;;;;;;20.23;26.54;96267.84;5079470;28;20097;-78
2021/05/08 11:34:11;;;;;;;3.65;1.85;;;;;;;20.28;28.09;96269.03;5078166;28;20112;-82
2021/05/08 11:36:58;;;;;;;3.88;1.63;;;;;;;20.93;27.68;96262.22;5066495;28;20618;-83
2021/05/08 11:39:28;;;;;;;5.60;2.65;;;;;;;20.01;27.83;96264.72;5069249;28;20040;-83
2021/05/08 11:41:56;;;;;;;4.43;1.70;;;;;;;20.38;29.31;96262.13;5070973;28;20039;-82